Time;durP1;ratioP1;P1;durP2;ratioP2;P2;SDS_P1;SDS_P2;PMS_P1;PMS_P2;Temp;Humidity;BMP_temperature;BMP_pressure;BME280_temperature;BME280_humidity;BME280_pressure;Samples;Min_cycle;Max_cycle;Signal;HPM_P1;HPM_P2
2020/12/12 00:00:59;;;;;;;60.75;24.57;;;;;;;1.09;84.04;99703.50;1717046;81;21108;-77
2020/12/12 00:03:26;;;;;;;59.75;25.62;;;;;;;1.10;84.06;99706.48;1723388;82;21205;-77
2020/12/12 00:05:52;;;;;;;53.55;22.70;;;;;;;1.09;84.06;99708.17;1704282;82;21933;-76
2020/12/12 00:08:19;;;;;;;57.30;24.65;;;;;;;1.07;84.04;99703.48;1712476;81;21167;-76
2020/12/12 00:10:49;;;;;;;43.98;17.65;;;;;;;1.07;84.04;99704.77;1719361;81;21152;-77
2020/12/12 00:13:16;;;;;;;52.38;22.35;;;;;;;1.06;84.07;99703.47;1702017;82;21125;-77
2020/12/12 00:15:43;;;;;;;56.75;24.12;;;;;;;1.05;84.08;99695.41;1711047;82;21646;-77
2020/12/12 00:18:09;;;;;;;58.60;23.62;;;;;;;1.05;84.09;99695.41;1715642;82;21222;-77
2020/12/12 00:20:36;;;;;;;57.80;23.90;;;;;;;1.05;84.11;99696.68;1723694;81;21169;-77
2020/12/12 00:23:02;;;;;;;49.98;21.17;;;;;;;1.05;84.11;99694.98;1729599;82;28272;-77
2020/12/12 00:25:29;;;;;;;54.15;25.60;;;;;;;1.06;84.13;99699.23;1705862;81;21122;-77
2020/12/12 00:27:55;;;;;;;48.02;22.22;;;;;;;1.05;84.12;99697.95;1721418;81;21209;-77
2020/12/12 00:30:21;;;;;;;55.83;24.57;;;;;;;1.04;84.13;99696.28;1707131;82;21628;-77
2020/12/12 00:32:47;;;;;;;56.95;24.85;;;;;;;1.05;84.13;99695.41;1726650;81;21196;-77
2020/12/12 00:35:14;;;;;;;51.95;23.12;;;;;;;1.05;84.17;99701.34;1721993;82;21236;-77
2020/12/12 00:37:40;;;;;;;53.13;23.98;;;;;;;1.05;84.14;99701.34;1710103;82;21944;-77
2020/12/12 00:40:07;;;;;;;48.70;21.70;;;;;;;1.05;84.19;99704.31;1715804;82;21208;-77
2020/12/12 00:42:33;;;;;;;61.13;26.65;;;;;;;1.05;84.21;99705.59;1712018;82;25686;-77
2020/12/12 00:44:59;;;;;;;61.42;26.45;;;;;;;1.05;84.18;99706.44;1714537;82;21655;-77
2020/12/12 00:47:25;;;;;;;55.60;23.47;;;;;;;1.04;84.18;99707.28;1719566;82;21124;-76
2020/12/12 00:49:52;;;;;;;55.67;24.52;;;;;;;1.05;84.20;99714.08;1713641;81;21098;-76
2020/12/12 00:52:18;;;;;;;53.95;25.30;;;;;;;1.04;84.21;99719.19;1711163;81;21121;-76
2020/12/12 00:54:44;;;;;;;57.10;25.08;;;;;;;1.05;84.22;99721.71;1708446;82;21418;-76
2020/12/12 00:57:10;;;;;;;50.65;23.07;;;;;;;1.05;84.25;99718.31;1716894;82;21129;-76
2020/12/12 00:59:37;;;;;;;51.73;23.35;;;;;;;1.05;84.26;99724.27;1718592;81;21122;-76
2020/12/12 01:02:03;;;;;;;54.20;24.37;;;;;;;1.07;84.27;99717.48;1711086;81;26564;-76
2020/12/12 01:04:29;;;;;;;53.08;23.57;;;;;;;1.09;84.30;99714.53;1731417;82;21111;-76
2020/12/12 01:06:55;;;;;;;53.87;23.95;;;;;;;1.09;84.28;99715.80;1717666;81;21401;-76
2020/12/12 01:09:22;;;;;;;54.00;24.70;;;;;;;1.10;84.29;99719.20;1710124;82;21165;-76
2020/12/12 01:11:48;;;;;;;58.28;24.85;;;;;;;1.12;84.36;99709.89;1716747;82;21559;-76
2020/12/12 01:14:14;;;;;;;54.73;23.75;;;;;;;1.13;84.31;99710.32;1707817;82;21620;-76
2020/12/12 01:16:40;;;;;;;61.68;24.35;;;;;;;1.12;84.28;99713.28;1711518;82;21144;-76
2020/12/12 01:19:06;;;;;;;57.43;23.80;;;;;;;1.12;84.34;99711.16;1714898;82;22189;-76
2020/12/12 01:21:33;;;;;;;62.83;26.62;;;;;;;1.13;84.34;99713.72;1711689;82;21118;-76
2020/12/12 01:23:59;;;;;;;47.93;21.37;;;;;;;1.13;84.35;99719.23;1713119;82;21152;-76
2020/12/12 01:26:25;;;;;;;60.28;25.85;;;;;;;1.14;84.38;99715.42;1704555;81;21128;-76
2020/12/12 01:28:51;;;;;;;62.03;25.62;;;;;;;1.15;84.41;99717.13;1714290;82;21106;-76
2020/12/12 01:31:17;;;;;;;60.95;25.08;;;;;;;1.15;84.39;99719.67;1721711;81;21744;-76
2020/12/12 01:33:44;;;;;;;63.23;26.23;;;;;;;1.15;84.39;99715.86;1732211;82;21715;-76
2020/12/12 01:36:10;;;;;;;57.08;25.17;;;;;;;1.16;84.42;99718.83;1721519;81;21197;-76
2020/12/12 01:38:36;;;;;;;64.77;26.30;;;;;;;1.17;84.44;99719.27;1711418;82;21203;-76
2020/12/12 01:41:03;;;;;;;56.28;24.63;;;;;;;1.18;84.43;99713.33;1708981;81;21767;-76
2020/12/12 01:43:29;;;;;;;;;;;;;;;1.18;84.42;99713.33;1735219;81;22366;-77
2020/12/12 01:45:56;;;;;;;64.37;25.50;;;;;;;1.18;84.43;99715.88;1724290;81;20298;-77
2020/12/12 01:48:22;;;;;;;63.63;27.52;;;;;;;1.17;84.45;99710.77;1710197;82;21228;-77
2020/12/12 01:50:50;;;;;;;69.95;26.12;;;;;;;1.18;84.48;99721.39;1706042;81;21200;-77
2020/12/12 01:53:19;;;;;;;60.70;25.27;;;;;;;1.18;84.51;99722.24;1708234;82;21633;-77
2020/12/12 01:55:49;;;;;;;61.70;26.55;;;;;;;1.19;84.50;99719.28;1710817;81;21465;-77
2020/12/12 01:58:16;;;;;;;65.55;28.00;;;;;;;1.20;84.52;99716.74;1722851;82;21522;-77
2020/12/12 02:00:43;;;;;;;69.40;27.55;;;;;;;1.20;84.52;99720.56;1725838;81;21192;-77
2020/12/12 02:03:11;;;;;;;60.80;26.25;;;;;;;1.21;84.51;99713.77;1720584;82;21600;-77
2020/12/12 02:05:43;;;;;;;68.70;28.02;;;;;;;1.21;84.50;99718.87;1725534;82;21207;-76
2020/12/12 02:08:17;;;;;;;66.95;25.77;;;;;;;1.21;84.53;99714.62;1732762;81;21195;-76
2020/12/12 02:10:48;;;;;;;64.90;26.37;;;;;;;1.21;84.53;99714.62;1716294;82;21204;-76
2020/12/12 02:13:17;;;;;;;68.67;27.62;;;;;;;1.22;84.53;99717.61;1724933;82;21193;-76
2020/12/12 02:15:45;;;;;;;65.28;25.35;;;;;;;1.22;84.56;99711.66;1723279;81;21752;-76
2020/12/12 02:18:20;;;;;;;60.70;26.37;;;;;;;1.23;84.57;99717.19;1708479;82;21205;-76
2020/12/12 02:20:59;;;;;;;66.37;27.63;;;;;;;1.23;84.54;99715.91;1707455;82;21258;-76
2020/12/12 02:23:27;;;;;;;71.33;29.37;;;;;;;1.23;84.57;99714.64;1716517;82;21266;-76
2020/12/12 02:25:55;;;;;;;59.70;26.50;;;;;;;1.20;84.53;99713.34;1717779;81;21187;-76
2020/12/12 02:29:04;;;;;;;60.48;28.95;;;;;;;1.19;84.56;99715.03;1718054;81;21199;-76
2020/12/12 02:30:53;;;;;;;62.33;27.45;;;;;;;1.18;84.56;99710.78;1716145;81;21194;-76
2020/12/12 02:33:19;;;;;;;62.38;25.88;;;;;;;1.18;84.62;99709.94;1716024;82;21224;-76
2020/12/12 02:35:46;;;;;;;59.83;25.97;;;;;;;1.19;84.59;99711.64;1717657;82;22059;-76
2020/12/12 02:38:12;;;;;;;54.63;23.70;;;;;;;1.18;84.61;99707.39;1719037;82;21247;-76
2020/12/12 02:40:39;;;;;;;61.30;25.43;;;;;;;1.16;84.62;99707.38;1713845;81;21630;-76
2020/12/12 02:43:13;;;;;;;;;;;;;;;1.15;84.61;99708.22;1728400;81;21173;-77
2020/12/12 02:45:45;;;;;;;52.83;23.15;;;;;;;1.14;84.60;99701.84;1714935;82;22460;-76
2020/12/12 02:48:11;;;;;;;55.40;22.27;;;;;;;1.13;84.64;99697.59;1722772;82;21137;-76
2020/12/12 02:50:37;;;;;;;55.33;22.30;;;;;;;1.13;84.69;99696.31;1711531;81;21111;-76
2020/12/12 02:53:03;;;;;;;58.38;23.83;;;;;;;1.14;84.70;99692.51;1717003;82;21105;-76
2020/12/12 02:55:30;;;;;;;49.75;21.45;;;;;;;1.12;84.70;99690.38;1730096;82;21120;-76
2020/12/12 02:57:56;;;;;;;50.80;23.40;;;;;;;1.13;84.67;99695.89;1715169;82;21273;-76
2020/12/12 03:00:25;;;;;;;58.00;24.77;;;;;;;1.13;84.70;99697.59;1721623;81;21573;-76
2020/12/12 03:02:51;;;;;;;58.02;23.73;;;;;;;1.12;84.73;99685.70;1719192;82;21123;-76
2020/12/12 03:05:18;;;;;;;50.25;18.98;;;;;;;1.12;84.72;99685.28;1716307;81;21129;-76
2020/12/12 03:07:44;;;;;;;;;;;;;;;1.11;84.71;99686.13;1706545;81;21128;-76
2020/12/12 03:10:10;;;;;;;53.30;23.22;;;;;;;1.12;84.77;99684.43;1739506;81;21211;-76
2020/12/12 03:12:38;;;;;;;54.65;23.18;;;;;;;1.09;84.75;99668.71;1726766;82;21148;-76
2020/12/12 03:15:10;;;;;;;53.23;24.02;;;;;;;1.10;84.78;99669.56;1734508;81;21144;-76
2020/12/12 03:17:37;;;;;;;50.75;22.85;;;;;;;1.10;84.79;99674.23;1720086;81;21889;-76
2020/12/12 03:20:05;;;;;;;52.30;23.27;;;;;;;1.10;84.84;99679.33;1726494;82;21113;-76
2020/12/12 03:22:32;;;;;;;50.30;23.67;;;;;;;1.11;84.84;99680.18;1719392;81;21232;-76
2020/12/12 03:24:58;;;;;;;;;;;;;;;1.11;84.83;99674.66;1728649;81;21411;-76
2020/12/12 03:27:24;;;;;;;55.00;24.45;;;;;;;1.13;84.88;99672.13;1719301;82;20262;-76
2020/12/12 03:29:51;;;;;;;53.68;24.37;;;;;;;1.14;84.86;99681.05;1723765;82;21243;-76
2020/12/12 03:32:17;;;;;;;52.08;22.45;;;;;;;1.15;84.86;99675.13;1718744;82;21183;-76
2020/12/12 03:34:44;;;;;;;46.15;22.42;;;;;;;1.16;84.88;99676.82;1718470;81;21721;-76
2020/12/12 03:37:12;;;;;;;49.05;22.50;;;;;;;1.18;84.90;99674.29;1731733;82;21191;-76
2020/12/12 03:39:40;;;;;;;52.98;23.98;;;;;;;1.19;84.90;99671.75;1709246;82;21195;-76
2020/12/12 03:42:07;;;;;;;48.85;22.50;;;;;;;1.21;84.88;99679.41;1725278;81;21196;-77
2020/12/12 03:44:33;;;;;;;;;;;;;;;1.20;84.89;99675.16;1726474;81;21632;-76
2020/12/12 03:46:59;;;;;;;50.05;22.37;;;;;;;1.19;84.92;99679.39;1725869;82;21091;-76
2020/12/12 03:49:25;;;;;;;46.30;21.27;;;;;;;1.20;84.95;99680.24;1720050;82;21180;-76
2020/12/12 03:51:51;;;;;;;53.87;23.20;;;;;;;1.21;84.96;99675.58;1718229;81;21492;-76
2020/12/12 03:54:18;;;;;;;49.20;22.02;;;;;;;1.21;84.94;99671.77;1707030;82;21195;-76
2020/12/12 03:56:44;;;;;;;61.02;25.23;;;;;;;1.21;84.94;99676.86;1725553;81;21206;-76
2020/12/12 03:59:10;;;;;;;50.55;21.95;;;;;;;1.20;84.98;99669.64;1717661;82;21863;-76
2020/12/12 04:01:36;;;;;;;50.23;24.85;;;;;;;1.21;84.97;99667.95;1714928;82;21217;-76
2020/12/12 04:04:04;;;;;;;51.30;22.50;;;;;;;1.23;85.01;99667.53;1720692;81;21203;-76
2020/12/12 04:06:33;;;;;;;49.35;22.42;;;;;;;1.24;85.02;99658.63;1708740;82;21258;-76
2020/12/12 04:08:59;;;;;;;50.33;23.38;;;;;;;1.25;85.01;99660.75;1716502;81;21232;-76
2020/12/12 04:11:25;;;;;;;53.13;23.20;;;;;;;1.26;85.04;99661.19;1707688;82;21646;-76
2020/12/12 04:13:51;;;;;;;53.95;23.20;;;;;;;1.27;85.02;99657.37;1726220;82;22279;-76
2020/12/12 04:16:18;;;;;;;52.70;23.02;;;;;;;1.27;85.03;99658.65;1736764;81;21624;-76
2020/12/12 04:18:44;;;;;;;49.15;23.25;;;;;;;1.28;85.04;99657.81;1722769;81;21760;-76
2020/12/12 04:21:10;;;;;;;49.90;23.50;;;;;;;1.28;85.02;99653.98;1708310;81;21644;-76
2020/12/12 04:23:37;;;;;;;50.20;23.05;;;;;;;1.29;85.05;99653.56;1730771;82;21888;-76
2020/12/12 04:26:04;;;;;;;56.92;24.05;;;;;;;1.30;85.07;99656.13;1711034;82;21199;-76
2020/12/12 04:28:30;;;;;;;47.75;20.48;;;;;;;1.31;85.07;99654.42;1720266;81;21207;-76
2020/12/12 04:30:56;;;;;;;;;;;;;;;1.31;85.10;99657.83;1711636;81;22519;-76
2020/12/12 04:33:23;;;;;;;46.30;20.80;;;;;;;1.33;85.13;99666.75;1720319;82;20858;-76
2020/12/12 04:35:49;;;;;;;48.80;21.50;;;;;;;1.34;85.14;99658.27;1711982;81;21239;-76
2020/12/12 04:38:15;;;;;;;50.73;21.60;;;;;;;1.37;85.13;99654.46;1727877;81;21207;-76
2020/12/12 04:40:42;;;;;;;55.55;21.90;;;;;;;1.37;85.11;99653.61;1721938;81;21221;-76
2020/12/12 04:43:09;;;;;;;48.63;22.62;;;;;;;1.38;85.10;99653.62;1698528;82;21751;-77
2020/12/12 04:45:39;;;;;;;53.83;23.57;;;;;;;1.38;85.12;99651.07;1717730;82;21156;-77
2020/12/12 04:48:05;;;;;;;49.83;21.27;;;;;;;1.39;85.13;99653.20;1726222;81;21232;-77
2020/12/12 04:50:31;;;;;;;50.50;21.27;;;;;;;1.40;85.15;99646.84;1712381;82;21426;-77
2020/12/12 04:53:13;;;;;;;52.90;22.77;;;;;;;1.41;85.15;99643.87;1713637;81;21100;-76
2020/12/12 04:55:45;;;;;;;51.70;22.80;;;;;;;1.41;85.14;99648.55;1720136;82;21107;-76
2020/12/12 04:58:22;;;;;;;51.63;21.40;;;;;;;1.41;85.15;99644.72;1710696;81;21078;-76
2020/12/12 05:00:51;;;;;;;55.10;21.45;;;;;;;1.41;85.14;99645.14;1709943;81;21631;-76
2020/12/12 05:03:20;;;;;;;53.70;21.70;;;;;;;1.41;85.16;99647.27;1727495;81;21168;-76
2020/12/12 05:05:46;;;;;;;57.40;23.27;;;;;;;1.42;85.18;99644.30;1725048;81;21236;-76
2020/12/12 05:08:13;;;;;;;;;;;;;;;1.43;85.19;99644.31;1713552;82;21247;-76
2020/12/12 05:10:45;;;;;;;50.90;21.15;;;;;;;1.43;85.21;99636.67;1724967;82;20256;-76
2020/12/12 05:13:24;;;;;;;53.52;23.25;;;;;;;1.43;85.19;99648.13;1722374;82;21876;-76
2020/12/12 05:15:52;;;;;;;62.40;24.30;;;;;;;1.43;85.23;99647.28;1721425;81;21141;-76
2020/12/12 05:18:19;;;;;;;54.58;23.52;;;;;;;1.45;85.22;99648.14;1719738;82;21442;-76
2020/12/12 05:20:46;;;;;;;57.67;23.50;;;;;;;1.44;85.21;99642.19;1725592;81;21135;-76
2020/12/12 05:23:14;;;;;;;55.55;22.93;;;;;;;1.43;85.18;99640.91;1718601;81;21106;-76
2020/12/12 05:25:42;;;;;;;50.80;22.48;;;;;;;1.43;85.22;99646.86;1719694;82;21297;-76
2020/12/12 05:28:10;;;;;;;46.77;21.27;;;;;;;1.43;85.24;99651.10;1707808;82;21545;-76
2020/12/12 05:30:38;;;;;;;51.70;22.42;;;;;;;1.43;85.27;99642.19;1717829;82;21132;-76
2020/12/12 05:33:07;;;;;;;51.42;22.48;;;;;;;1.45;85.29;99642.63;1716918;82;21133;-76
2020/12/12 05:35:34;;;;;;;58.10;21.62;;;;;;;1.47;85.29;99644.75;1731870;81;21130;-76
2020/12/12 05:38:02;;;;;;;52.93;21.87;;;;;;;1.49;85.30;99643.48;1725349;82;21347;-76
2020/12/12 05:40:29;;;;;;;60.90;24.18;;;;;;;1.50;85.25;99646.47;1714239;82;21154;-76
2020/12/12 05:42:55;;;;;;;67.20;25.55;;;;;;;1.50;85.27;99651.56;1718032;81;21168;-77
2020/12/12 05:45:21;;;;;;;56.08;23.32;;;;;;;1.50;85.26;99647.74;1719496;82;21229;-77
2020/12/12 05:47:48;;;;;;;57.08;23.30;;;;;;;1.51;85.28;99658.36;1725928;82;21831;-77
2020/12/12 05:50:14;;;;;;;55.73;23.27;;;;;;;1.52;85.33;99651.15;1726846;82;21782;-77
2020/12/12 05:52:41;;;;;;;59.63;23.47;;;;;;;1.54;85.33;99660.92;1718497;82;21183;-76
2020/12/12 05:55:09;;;;;;;58.80;23.25;;;;;;;1.54;85.33;99658.37;1718898;82;21219;-76
2020/12/12 05:57:37;;;;;;;54.65;22.55;;;;;;;1.55;85.35;99655.84;1718579;81;22032;-76
2020/12/12 06:00:06;;;;;;;57.03;23.65;;;;;;;1.56;85.36;99661.33;1708155;82;21118;-76
2020/12/12 06:02:38;;;;;;;56.90;23.20;;;;;;;1.60;85.38;99662.20;1695333;83;21179;-76
2020/12/12 06:05:05;;;;;;;65.55;26.00;;;;;;;1.61;85.38;99662.62;1702349;82;20988;-76
2020/12/12 06:07:33;;;;;;;61.23;24.52;;;;;;;1.61;85.37;99654.56;1685848;81;342814;-76
2020/12/12 06:10:05;;;;;;;66.25;26.10;;;;;;;1.63;85.40;99656.69;1670266;84;21256;-76
2020/12/12 06:12:34;;;;;;;63.02;25.02;;;;;;;1.65;85.36;99668.16;1657520;84;21682;-76
2020/12/12 06:15:01;;;;;;;62.08;23.67;;;;;;;1.64;85.39;99668.59;1670323;84;21447;-76
2020/12/12 06:17:42;;;;;;;;;;;;;;;1.65;85.34;99670.72;1673149;84;21670;-76
2020/12/12 06:20:11;;;;;;;67.53;23.52;;;;;;;1.64;85.35;99677.93;1650422;84;20353;-76
2020/12/12 06:22:40;;;;;;;69.42;24.90;;;;;;;1.62;85.42;99671.55;1670244;85;21232;-76
2020/12/12 06:25:08;;;;;;;71.07;25.27;;;;;;;1.62;85.42;99670.28;1658964;85;21227;-77
2020/12/12 06:27:42;;;;;;;63.58;24.35;;;;;;;1.64;85.45;99680.48;1666905;85;21247;-77
2020/12/12 06:30:13;;;;;;;70.10;24.95;;;;;;;1.66;85.47;99675.81;1652431;85;21671;-76
2020/12/12 06:32:41;;;;;;;56.92;22.98;;;;;;;1.65;85.44;99672.84;1659673;85;21171;-76
2020/12/12 06:35:07;;;;;;;66.40;25.92;;;;;;;1.66;85.46;99678.37;1671821;85;21136;-75
2020/12/12 06:37:38;;;;;;;70.03;26.30;;;;;;;1.68;85.47;99679.65;1662217;84;21128;-75
2020/12/12 06:40:12;;;;;;;61.02;26.80;;;;;;;1.66;85.44;99682.19;1668075;84;21225;-74
2020/12/12 06:42:41;;;;;;;60.35;24.30;;;;;;;1.65;85.37;99684.73;1656630;85;21803;-75
2020/12/12 06:45:21;;;;;;;61.25;23.35;;;;;;;1.61;85.43;99681.31;1663593;84;21153;-75
2020/12/12 06:47:51;;;;;;;61.55;25.37;;;;;;;1.61;85.46;99684.28;1671505;84;21131;-74
2020/12/12 06:50:36;;;;;;;61.55;25.25;;;;;;;1.61;85.46;99688.11;1668791;84;21141;-74
2020/12/12 06:52:55;;;;;;;58.35;22.93;;;;;;;1.60;85.47;99691.08;1656716;84;21151;-74
2020/12/12 06:55:23;;;;;;;61.08;23.50;;;;;;;1.61;85.48;99691.92;1662364;84;21220;-74
2020/12/12 06:57:55;;;;;;;62.67;24.67;;;;;;;1.59;85.51;99691.91;1669974;84;21224;-74
2020/12/12 07:00:34;;;;;;;57.15;24.00;;;;;;;1.60;85.53;99689.80;1651933;85;22335;-74
2020/12/12 07:03:07;;;;;;;59.08;23.00;;;;;;;1.61;85.51;99686.83;1684012;83;21195;-73
2020/12/12 07:05:39;;;;;;;64.80;25.00;;;;;;;1.60;85.53;99696.17;1663352;84;22062;-74
2020/12/12 07:08:09;;;;;;;68.28;26.23;;;;;;;1.61;85.52;99695.75;1660860;84;21218;-74
2020/12/12 07:10:39;;;;;;;61.60;24.10;;;;;;;1.61;85.53;99697.02;1677958;83;21243;-74
2020/12/12 07:13:07;;;;;;;66.87;24.12;;;;;;;1.61;85.54;99692.78;1690188;83;21242;-74
2020/12/12 07:15:37;;;;;;;65.40;25.27;;;;;;;1.64;85.58;99694.49;1680722;83;21687;-74
2020/12/12 07:18:08;;;;;;;65.72;26.90;;;;;;;1.67;85.61;99698.33;1673715;83;21388;-74
2020/12/12 07:20:48;;;;;;;64.53;24.52;;;;;;;1.69;85.56;99699.61;1670084;83;21034;-74
2020/12/12 07:23:16;;;;;;;69.15;24.92;;;;;;;1.69;85.58;99700.46;1675657;84;21647;-74
2020/12/12 07:25:43;;;;;;;65.90;25.70;;;;;;;1.70;85.59;99703.86;1681003;83;21643;-74
2020/12/12 07:28:10;;;;;;;69.55;26.33;;;;;;;1.71;85.59;99710.24;1673750;83;21118;-74
2020/12/12 07:30:36;;;;;;;56.08;24.30;;;;;;;1.70;85.58;99704.72;1674687;83;21209;-75
2020/12/12 07:33:03;;;;;;;71.62;25.72;;;;;;;1.70;85.56;99709.81;1679123;83;21645;-75
2020/12/12 07:35:32;;;;;;;64.15;24.27;;;;;;;1.69;85.57;99714.90;1674342;83;21064;-75
2020/12/12 07:38:05;;;;;;;67.78;25.43;;;;;;;1.68;85.57;99711.92;1678257;83;21215;-75
2020/12/12 07:40:34;;;;;;;59.70;23.87;;;;;;;1.68;85.60;99715.74;1677902;83;21219;-75
2020/12/12 07:43:08;;;;;;;60.08;25.02;;;;;;;1.66;85.52;99715.73;1681138;83;21232;-75
2020/12/12 07:46:01;;;;;;;56.48;22.27;;;;;;;1.61;85.53;99712.31;1677192;83;21156;-75
2020/12/12 07:48:22;;;;;;;60.75;23.30;;;;;;;1.61;85.58;99716.12;1664342;83;21147;-75
2020/12/12 07:50:48;;;;;;;55.58;22.30;;;;;;;1.59;85.58;99712.30;1635817;86;21129;-75
2020/12/12 07:53:16;;;;;;;61.83;23.55;;;;;;;1.57;85.60;99716.53;1642528;86;21118;-75
2020/12/12 07:55:54;;;;;;;60.43;24.55;;;;;;;1.54;85.62;99720.38;1613812;87;21961;-75
2020/12/12 07:58:27;;;;;;;62.83;24.37;;;;;;;1.56;85.66;99717.83;1635805;86;21158;-75
2020/12/12 08:00:59;;;;;;;59.20;23.10;;;;;;;1.55;85.66;99719.53;1627557;85;21179;-75
2020/12/12 08:03:26;;;;;;;58.13;24.00;;;;;;;1.55;85.68;99724.63;1619236;86;21144;-75
2020/12/12 08:06:10;;;;;;;58.20;24.18;;;;;;;1.54;85.68;99719.52;1630948;86;21122;-75
2020/12/12 08:08:38;;;;;;;54.48;23.18;;;;;;;1.57;85.72;99720.78;1630091;86;21167;-75
2020/12/12 08:11:06;;;;;;;59.20;24.32;;;;;;;1.57;85.72;99729.27;1619398;86;21164;-75
2020/12/12 08:13:33;;;;;;;62.27;23.92;;;;;;;1.59;85.73;99730.55;1628822;86;20969;-75
2020/12/12 08:16:07;;;;;;;;;;;;;;;1.60;85.78;99731.84;1620534;87;21134;-75
2020/12/12 08:18:31;;;;;;;67.55;27.20;;;;;;;1.63;85.82;99731.86;1610644;87;20470;-75
2020/12/12 08:21:16;;;;;;;65.80;24.90;;;;;;;1.65;85.80;99732.72;1624483;86;21925;-75
2020/12/12 08:23:43;;;;;;;59.85;24.45;;;;;;;1.64;85.74;99732.29;1608087;87;21155;-75
2020/12/12 08:26:14;;;;;;;62.67;25.80;;;;;;;1.64;85.75;99729.73;1613952;88;21165;-75
2020/12/12 08:28:40;;;;;;;72.37;26.65;;;;;;;1.66;85.78;99729.75;1616556;88;21170;-75
2020/12/12 08:31:20;;;;;;;67.75;27.07;;;;;;;1.68;85.77;99731.03;1624393;88;21168;-75
2020/12/12 08:33:55;;;;;;;74.03;28.70;;;;;;;1.66;85.73;99731.88;1623708;88;21204;-75
2020/12/12 08:36:30;;;;;;;68.03;27.03;;;;;;;1.65;85.78;99737.81;1618954;88;21135;-75
2020/12/12 08:39:06;;;;;;;64.50;27.35;;;;;;;1.65;85.76;99739.09;1626936;88;21685;-75
2020/12/12 08:41:36;;;;;;;65.67;27.73;;;;;;;1.64;85.76;99736.11;1617825;88;21124;-75
2020/12/12 08:44:03;;;;;;;74.70;28.40;;;;;;;1.64;85.80;99737.38;1625554;88;21572;-75
2020/12/12 08:46:30;;;;;;;72.55;27.27;;;;;;;1.65;85.81;99736.54;1620678;87;21180;-75
2020/12/12 08:48:56;;;;;;;;;;;;;;;1.66;85.81;99736.97;1620337;86;21171;-75
2020/12/12 08:51:25;;;;;;;;;;;;;;;1.64;85.74;99733.56;1631425;86;20262;-75
2020/12/12 08:53:52;;;;;;;65.42;25.88;;;;;;;1.63;85.76;99744.59;1625290;86;20291;-75
2020/12/12 08:56:30;;;;;;;70.40;29.75;;;;;;;1.62;85.77;99746.72;1623902;86;21110;-75
2020/12/12 08:59:06;;;;;;;65.05;27.58;;;;;;;1.63;85.81;99745.02;1622325;86;21369;-75
2020/12/12 09:01:43;;;;;;;66.95;27.58;;;;;;;1.62;85.78;99741.62;1588803;87;21151;-75
2020/12/12 09:04:15;;;;;;;74.82;30.70;;;;;;;1.63;85.79;99741.20;1606946;88;21151;-75
2020/12/12 09:06:51;;;;;;;73.90;31.17;;;;;;;1.62;85.84;99744.16;1616268;87;21122;-75
2020/12/12 09:09:28;;;;;;;70.08;27.55;;;;;;;1.62;85.79;99749.27;1619135;88;21232;-75
2020/12/12 09:12:08;;;;;;;72.50;31.20;;;;;;;1.60;85.84;99749.67;1617554;86;21610;-74
2020/12/12 09:14:37;;;;;;;72.92;28.77;;;;;;;1.61;85.84;99748.83;1609401;88;21210;-74
2020/12/12 09:17:07;;;;;;;77.37;31.10;;;;;;;1.61;85.81;99747.56;1612290;87;22511;-74
2020/12/12 09:19:34;;;;;;;65.92;30.10;;;;;;;1.61;85.84;99751.38;1612411;87;21273;-74
2020/12/12 09:22:00;;;;;;;76.47;29.45;;;;;;;1.62;85.87;99744.59;1616008;87;21498;-74
2020/12/12 09:24:27;;;;;;;;;;;;;;;1.62;85.88;99743.31;1617002;87;21273;-74
2020/12/12 09:26:57;;;;;;;72.58;32.15;;;;;;;1.63;85.90;99750.11;1604647;87;20314;-74
2020/12/12 09:29:24;;;;;;;72.08;29.95;;;;;;;1.63;85.86;99748.84;1617858;88;21550;-74
2020/12/12 09:31:52;;;;;;;72.97;31.00;;;;;;;1.64;85.86;99756.92;1600203;88;21203;-74
2020/12/12 09:34:18;;;;;;;70.05;30.80;;;;;;;1.63;85.87;99755.21;1608149;87;21530;-74
2020/12/12 09:36:45;;;;;;;74.82;31.10;;;;;;;1.62;85.83;99758.18;1614395;87;21186;-74
2020/12/12 09:39:11;;;;;;;;;;;;;;;1.59;85.81;99753.06;1602817;88;21220;-74
2020/12/12 09:41:37;;;;;;;71.60;31.75;;;;;;;1.58;85.89;99753.91;1611790;87;20214;-74
2020/12/12 09:44:03;;;;;;;74.67;32.58;;;;;;;1.57;85.90;99761.12;1600616;88;21204;-75
2020/12/12 09:46:30;;;;;;;66.62;30.17;;;;;;;1.60;85.94;99752.22;1611756;88;21257;-75
2020/12/12 09:48:56;;;;;;;74.85;31.12;;;;;;;1.60;85.93;99756.05;1609770;87;21501;-75
2020/12/12 09:51:22;;;;;;;73.62;31.45;;;;;;;1.61;85.96;99755.63;1615639;87;21188;-75
2020/12/12 09:53:49;;;;;;;77.97;31.73;;;;;;;1.62;85.95;99751.81;1607783;87;28822;-75
2020/12/12 09:56:16;;;;;;;76.15;33.13;;;;;;;1.63;85.95;99745.88;1617458;87;21189;-75
2020/12/12 09:58:44;;;;;;;71.70;30.62;;;;;;;1.63;85.93;99748.42;1606490;87;21248;-75
2020/12/12 10:01:11;;;;;;;73.00;30.52;;;;;;;1.65;85.89;99748.01;1597499;88;21724;-75
2020/12/12 10:03:38;;;;;;;66.07;30.60;;;;;;;1.64;85.95;99750.13;1621784;87;21211;-75
2020/12/12 10:06:07;;;;;;;74.62;32.03;;;;;;;1.64;85.96;99748.84;1628065;86;21234;-75
2020/12/12 10:08:33;;;;;;;75.65;33.35;;;;;;;1.66;85.97;99752.27;1602480;86;21278;-75
2020/12/12 10:13:39;;;;;;;73.73;34.07;;;;;;;1.69;85.96;99751.42;1821781;78;22012;-74
2020/12/12 10:16:05;;;;;;;77.90;32.98;;;;;;;1.68;85.99;99753.97;1795647;78;21190;-74
2020/12/12 10:18:31;;;;;;;82.15;33.92;;;;;;;1.68;86.00;99756.52;1801196;78;21931;-74
2020/12/12 10:20:58;;;;;;;80.67;34.05;;;;;;;1.71;86.07;99754.84;1796568;78;22165;-74
2020/12/12 10:23:24;;;;;;;75.00;33.85;;;;;;;1.74;86.13;99754.86;1797458;78;21944;-74
2020/12/12 10:25:51;;;;;;;79.58;33.92;;;;;;;1.78;86.01;99762.09;1795270;78;21233;-74
2020/12/12 10:28:18;;;;;;;80.72;36.17;;;;;;;1.76;85.99;99760.81;1791256;78;21524;-74
2020/12/12 10:30:44;;;;;;;81.28;34.70;;;;;;;1.79;86.03;99754.88;1805248;78;22020;-74
2020/12/12 10:33:10;;;;;;;79.62;36.42;;;;;;;1.75;85.93;99759.11;1797968;78;21470;-74
2020/12/12 10:35:36;;;;;;;79.42;34.92;;;;;;;1.71;85.92;99762.48;1800411;79;21539;-73
2020/12/12 10:38:03;;;;;;;79.75;36.93;;;;;;;1.69;85.90;99760.77;1794513;78;21158;-73
2020/12/12 10:42:56;;;;;;;81.80;35.35;;;;;;;1.67;86.05;99754.39;1760558;80;21206;-74
2020/12/12 10:45:23;;;;;;;82.88;36.83;;;;;;;1.70;86.13;99762.05;1745348;80;21178;-74
2020/12/12 10:47:49;;;;;;;83.82;37.08;;;;;;;1.74;86.07;99765.47;1738591;80;21186;-74
2020/12/12 10:50:15;;;;;;;91.85;38.78;;;;;;;1.74;86.08;99759.95;1743303;81;21190;-74
2020/12/12 10:52:42;;;;;;;81.12;35.40;;;;;;;1.77;86.07;99760.39;1733091;81;21215;-75
2020/12/12 10:55:08;;;;;;;86.37;37.20;;;;;;;1.77;86.06;99766.77;1733061;81;21930;-74
2020/12/12 10:57:34;;;;;;;86.55;39.10;;;;;;;1.77;86.05;99767.62;1739964;81;22069;-74
2020/12/12 11:00:03;;;;;;;87.22;38.08;;;;;;;1.76;86.01;99766.33;1745680;81;21174;-74
2020/12/12 11:02:29;;;;;;;82.40;38.15;;;;;;;1.76;86.00;99765.91;1757570;80;21178;-74
2020/12/12 11:04:56;;;;;;;89.50;40.20;;;;;;;1.77;86.07;99766.77;1752847;80;21186;-74
2020/12/12 11:07:22;;;;;;;88.87;37.65;;;;;;;1.79;86.11;99767.20;1750537;80;21211;-74
2020/12/12 11:09:49;;;;;;;86.40;37.38;;;;;;;1.80;86.05;99766.36;1737531;81;21226;-74
2020/12/12 11:12:15;;;;;;;90.32;39.33;;;;;;;1.80;86.04;99761.27;1737767;81;21194;-75
2020/12/12 11:14:42;;;;;;;83.65;36.58;;;;;;;1.79;86.01;99767.20;1743140;81;21229;-75
2020/12/12 11:17:09;;;;;;;84.17;37.53;;;;;;;1.80;86.01;99766.78;1742279;81;21119;-75
2020/12/12 11:19:35;;;;;;;84.58;36.53;;;;;;;1.80;86.06;99766.36;1748368;81;21246;-75
2020/12/12 11:22:02;;;;;;;76.62;34.13;;;;;;;1.80;86.06;99765.09;1750140;81;21155;-77
2020/12/12 11:24:28;;;;;;;79.82;34.50;;;;;;;1.79;86.00;99768.90;1736747;81;28664;-76
2020/12/12 11:26:54;;;;;;;77.22;36.05;;;;;;;1.78;86.05;99770.59;1747446;81;21000;-76
2020/12/12 11:29:21;;;;;;;72.72;32.42;;;;;;;1.79;86.07;99763.80;1731534;81;21532;-76
2020/12/12 11:31:51;;;;;;;84.28;36.93;;;;;;;1.80;86.10;99766.36;1739661;81;22143;-76
2020/12/12 11:46:55;;;;;;;75.72;35.25;;;;;;;1.88;86.10;99763.43;1780509;79;20981;-76
2020/12/12 11:49:23;;;;;;;77.80;36.63;;;;;;;1.90;86.11;99762.16;1792609;79;20933;-76
2020/12/12 11:51:49;;;;;;;69.65;33.30;;;;;;;1.88;86.09;99758.34;1781642;79;21132;-76